sensor_id;sensor_type;location;lat;lon;timestamp;pressure;altitude;pressure_sealevel;temperature;humidity
79546;BME280;69004;50.760;6.958;2023-04-30T15:39:08;100834.16;;;19.86;41.61
79546;BME280;69004;50.760;6.958;2023-04-30T15:41:35;100835.03;;;19.81;42.06
79546;BME280;69004;50.760;6.958;2023-04-30T15:44:01;100826.16;;;19.79;42.44
79546;BME280;69004;50.760;6.958;2023-04-30T16:12:16;100910.16;;;18.06;44.70
79546;BME280;69004;50.760;6.958;2023-04-30T16:14:43;100900.81;;;17.63;45.99
79546;BME280;69004;50.760;6.958;2023-04-30T16:17:09;100903.19;;;17.35;46.58
79546;BME280;69004;50.760;6.958;2023-04-30T16:19:35;100895.81;;;17.15;47.01
79546;BME280;69004;50.760;6.958;2023-04-30T16:23:19;100894.50;;;16.96;47.55
79546;BME280;69004;50.760;6.958;2023-04-30T16:26:55;100889.00;;;16.86;47.78
79546;BME280;69004;50.760;6.958;2023-04-30T16:29:21;100884.59;;;16.80;48.20
79546;BME280;69004;50.760;6.958;2023-04-30T16:31:47;100880.72;;;16.76;48.07
79546;BME280;69004;50.760;6.958;2023-04-30T16:34:14;100882.97;;;16.74;48.41
79546;BME280;69004;50.760;6.958;2023-04-30T16:36:40;100878.53;;;16.73;48.64
79546;BME280;69004;50.760;6.958;2023-04-30T16:39:06;100884.06;;;16.73;48.51
79546;BME280;69004;50.760;6.958;2023-04-30T16:41:32;100882.97;;;16.74;48.43
79546;BME280;69004;50.760;6.958;2023-04-30T16:43:59;100881.31;;;16.73;49.06
79546;BME280;69004;50.760;6.958;2023-04-30T16:46:25;100875.78;;;16.73;49.09
79546;BME280;69004;50.760;6.958;2023-04-30T16:48:52;100880.22;;;16.74;49.10
79546;BME280;69004;50.760;6.958;2023-04-30T16:51:18;100874.97;;;16.72;49.00
79546;BME280;69004;50.760;6.958;2023-04-30T16:53:44;100872.19;;;16.72;49.12
79546;BME280;69004;50.760;6.958;2023-04-30T16:56:10;100878.53;;;16.73;49.76
79546;BME280;69004;50.760;6.958;2023-04-30T16:58:37;100873.31;;;16.71;49.87
79546;BME280;69004;50.760;6.958;2023-04-30T17:01:03;100872.47;;;16.71;50.07
79546;BME280;69004;50.760;6.958;2023-04-30T17:03:30;100868.03;;;16.70;50.14
79546;BME280;69004;50.760;6.958;2023-04-30T17:05:56;100866.41;;;16.69;50.75
79546;BME280;69004;50.760;6.958;2023-04-30T17:08:22;100859.22;;;16.68;50.94
79546;BME280;69004;50.760;6.958;2023-04-30T17:10:49;100857.56;;;16.67;50.77
79546;BME280;69004;50.760;6.958;2023-04-30T17:13:15;100855.09;;;16.65;50.87
79546;BME280;69004;50.760;6.958;2023-04-30T17:15:41;100847.91;;;16.64;51.01
79546;BME280;69004;50.760;6.958;2023-04-30T17:18:08;100848.19;;;16.62;51.54
79546;BME280;69004;50.760;6.958;2023-04-30T17:20:35;100854.81;;;16.61;51.45
79546;BME280;69004;50.760;6.958;2023-04-30T17:23:01;100849.28;;;16.61;51.57
79546;BME280;69004;50.760;6.958;2023-04-30T17:25:28;100851.50;;;16.59;51.88
79546;BME280;69004;50.760;6.958;2023-04-30T17:27:56;100844.31;;;16.58;51.57
79546;BME280;69004;50.760;6.958;2023-04-30T17:30:26;100843.75;;;16.56;51.45
79546;BME280;69004;50.760;6.958;2023-04-30T17:32:52;100852.91;;;16.57;51.78
79546;BME280;69004;50.760;6.958;2023-04-30T17:35:19;100844.91;;;16.55;51.57
79546;BME280;69004;50.760;6.958;2023-04-30T17:37:46;100850.41;;;16.55;51.49
79546;BME280;69004;50.760;6.958;2023-04-30T17:40:12;100849.56;;;16.55;51.79
79546;BME280;69004;50.760;6.958;2023-04-30T17:42:38;100845.16;;;16.54;51.80
79546;BME280;69004;50.760;6.958;2023-04-30T17:45:04;100843.50;;;16.53;51.54
79546;BME280;69004;50.760;6.958;2023-04-30T17:47:31;100843.78;;;16.51;51.51
79546;BME280;69004;50.760;6.958;2023-04-30T17:49:58;100847.41;;;16.52;51.80
79546;BME280;69004;50.760;6.958;2023-04-30T17:52:24;100842.97;;;16.51;51.83
79546;BME280;69004;50.760;6.958;2023-04-30T17:54:51;100842.13;;;16.50;52.00
79546;BME280;69004;50.760;6.958;2023-04-30T17:57:17;100841.59;;;16.48;51.73
79546;BME280;69004;50.760;6.958;2023-04-30T17:59:43;100849.88;;;16.48;51.97
79546;BME280;69004;50.760;6.958;2023-04-30T18:02:10;100845.47;;;16.47;51.81
79546;BME280;69004;50.760;6.958;2023-04-30T18:04:36;100841.03;;;16.46;51.62
79546;BME280;69004;50.760;6.958;2023-04-30T18:07:02;100833.84;;;16.45;51.86
79546;BME280;69004;50.760;6.958;2023-04-30T18:09:29;100839.38;;;16.45;51.89
79546;BME280;69004;50.760;6.958;2023-04-30T18:11:57;100839.38;;;16.45;51.80
79546;BME280;69004;50.760;6.958;2023-04-30T18:14:25;100836.63;;;16.45;51.66
79546;BME280;69004;50.760;6.958;2023-04-30T18:16:51;100832.19;;;16.44;51.94
79546;BME280;69004;50.760;6.958;2023-04-30T18:19:18;100830.53;;;16.43;52.17
79546;BME280;69004;50.760;6.958;2023-04-30T18:21:44;100833.31;;;16.43;51.75
79546;BME280;69004;50.760;6.958;2023-04-30T18:24:10;100834.44;;;16.42;51.69
79546;BME280;69004;50.760;6.958;2023-04-30T18:26:36;100834.44;;;16.42;52.27
79546;BME280;69004;50.760;6.958;2023-04-30T18:29:03;100841.06;;;16.41;52.25
79546;BME280;69004;50.760;6.958;2023-04-30T18:31:29;100835.53;;;16.41;52.21
79546;BME280;69004;50.760;6.958;2023-04-30T18:33:57;100830.28;;;16.39;51.91
79546;BME280;69004;50.760;6.958;2023-04-30T18:36:23;100836.63;;;16.40;52.37
79546;BME280;69004;50.760;6.958;2023-04-30T18:38:49;100838.84;;;16.38;51.89
79546;BME280;69004;50.760;6.958;2023-04-30T18:41:16;100834.16;;;16.38;52.08
79546;BME280;69004;50.760;6.958;2023-04-30T18:43:42;100827.78;;;16.38;52.26
79546;BME280;69004;50.760;6.958;2023-04-30T18:46:09;100838.84;;;16.38;52.05
79546;BME280;69004;50.760;6.958;2023-04-30T18:48:36;100834.44;;;16.37;51.97
79546;BME280;69004;50.760;6.958;2023-04-30T18:51:02;100830.84;;;16.36;52.19
79546;BME280;69004;50.760;6.958;2023-04-30T18:53:28;100836.66;;;16.35;52.28
79546;BME280;69004;50.760;6.958;2023-04-30T18:55:55;100842.19;;;16.35;52.24
79546;BME280;69004;50.760;6.958;2023-04-30T18:58:21;100836.66;;;16.35;52.08
79546;BME280;69004;50.760;6.958;2023-04-30T19:00:48;100843.28;;;16.33;52.17
79546;BME280;69004;50.760;6.958;2023-04-30T19:03:14;100839.69;;;16.33;52.03
79546;BME280;69004;50.760;6.958;2023-04-30T19:05:41;100846.06;;;16.33;52.13
79546;BME280;69004;50.760;6.958;2023-04-30T19:08:07;100840.53;;;16.33;51.93
79546;BME280;69004;50.760;6.958;2023-04-30T19:10:34;100842.44;;;16.33;52.26
79546;BME280;69004;50.760;6.958;2023-04-30T19:13:01;100841.63;;;16.32;52.16
79546;BME280;69004;50.760;6.958;2023-04-30T19:15:27;100841.63;;;16.32;52.12
79546;BME280;69004;50.760;6.958;2023-04-30T19:17:55;100847.97;;;16.33;52.22
79546;BME280;69004;50.760;6.958;2023-04-30T19:20:22;100852.69;;;16.32;51.94
79546;BME280;69004;50.760;6.958;2023-04-30T19:22:48;100847.16;;;16.32;52.25
79546;BME280;69004;50.760;6.958;2023-04-30T19:25:15;100848.25;;;16.31;52.08
79546;BME280;69004;50.760;6.958;2023-04-30T19:27:42;100856.53;;;16.31;52.35
79546;BME280;69004;50.760;6.958;2023-04-30T19:30:09;100851.03;;;16.31;52.26
79546;BME280;69004;50.760;6.958;2023-04-30T19:32:35;100862.06;;;16.31;52.12
79546;BME280;69004;50.760;6.958;2023-04-30T19:35:02;100856.53;;;16.31;52.01
79546;BME280;69004;50.760;6.958;2023-04-30T19:37:28;100862.38;;;16.30;52.57
79546;BME280;69004;50.760;6.958;2023-04-30T19:39:56;100860.41;;;16.30;52.13
79546;BME280;69004;50.760;6.958;2023-04-30T19:42:22;100860.41;;;16.30;52.12
79546;BME280;69004;50.760;6.958;2023-04-30T19:44:50;100860.41;;;16.30;52.04
79546;BME280;69004;50.760;6.958;2023-04-30T19:47:16;100866.78;;;16.31;52.32
79546;BME280;69004;50.760;6.958;2023-04-30T19:49:42;100873.13;;;16.31;52.51
79546;BME280;69004;50.760;6.958;2023-04-30T19:52:09;100866.78;;;16.31;52.08
79546;BME280;69004;50.760;6.958;2023-04-30T19:54:35;100870.38;;;16.31;52.21
79546;BME280;69004;50.760;6.958;2023-04-30T19:57:02;100871.47;;;16.30;52.22
79546;BME280;69004;50.760;6.958;2023-04-30T19:59:28;100865.94;;;16.30;52.38
79546;BME280;69004;50.760;6.958;2023-04-30T20:01:55;100875.06;;;16.31;52.51
79546;BME280;69004;50.760;6.958;2023-04-30T20:04:22;100869.81;;;16.29;52.58
79546;BME280;69004;50.760;6.958;2023-04-30T20:06:48;100873.69;;;16.28;52.10
79546;BME280;69004;50.760;6.958;2023-04-30T20:09:21;100869.81;;;16.29;52.52
79546;BME280;69004;50.760;6.958;2023-04-30T20:11:48;100872.56;;;16.29;52.37
79546;BME280;69004;50.760;6.958;2023-04-30T20:14:16;100868.19;;;16.28;52.59
79546;BME280;69004;50.760;6.958;2023-04-30T20:16:42;100875.34;;;16.29;52.36
79546;BME280;69004;50.760;6.958;2023-04-30T20:19:08;100877.28;;;16.29;52.26
79546;BME280;69004;50.760;6.958;2023-04-30T20:21:35;100876.47;;;16.28;52.53
79546;BME280;69004;50.760;6.958;2023-04-30T20:24:01;100873.69;;;16.28;52.44
79546;BME280;69004;50.760;6.958;2023-04-30T20:26:29;100880.03;;;16.29;52.13
79546;BME280;69004;50.760;6.958;2023-04-30T20:28:55;100877.56;;;16.27;52.26
79546;BME280;69004;50.760;6.958;2023-04-30T20:31:22;100879.22;;;16.28;52.24
79546;BME280;69004;50.760;6.958;2023-04-30T20:33:48;100874.50;;;16.29;52.33
79546;BME280;69004;50.760;6.958;2023-04-30T20:36:14;100880.84;;;16.29;52.58
79546;BME280;69004;50.760;6.958;2023-04-30T20:38:41;100874.50;;;16.29;52.58
79546;BME280;69004;50.760;6.958;2023-04-30T20:41:07;100871.19;;;16.27;52.41
79546;BME280;69004;50.760;6.958;2023-04-30T20:43:35;100877.56;;;16.27;52.20
79546;BME280;69004;50.760;6.958;2023-04-30T20:46:02;100875.91;;;16.26;52.62
79546;BME280;69004;50.760;6.958;2023-04-30T20:48:28;100876.72;;;16.27;52.53
79546;BME280;69004;50.760;6.958;2023-04-30T20:50:54;100879.78;;;16.25;52.38
79546;BME280;69004;50.760;6.958;2023-04-30T20:53:21;100875.06;;;16.26;52.55
79546;BME280;69004;50.760;6.958;2023-04-30T20:55:47;100880.59;;;16.26;52.67
79546;BME280;69004;50.760;6.958;2023-04-30T20:58:14;100877.00;;;16.25;52.73
79546;BME280;69004;50.760;6.958;2023-04-30T21:00:40;100867.06;;;16.24;52.30
79546;BME280;69004;50.760;6.958;2023-04-30T21:03:07;100872.59;;;16.24;52.47
79546;BME280;69004;50.760;6.958;2023-04-30T21:05:34;100872.59;;;16.24;52.62
79546;BME280;69004;50.760;6.958;2023-04-30T21:08:00;100869.81;;;16.24;52.75
79546;BME280;69004;50.760;6.958;2023-04-30T21:10:27;100869.00;;;16.24;52.63
79546;BME280;69004;50.760;6.958;2023-04-30T21:13:00;100872.59;;;16.24;52.56
79546;BME280;69004;50.760;6.958;2023-04-30T21:15:27;100870.91;;;16.23;52.67
79546;BME280;69004;50.760;6.958;2023-04-30T21:17:55;100875.63;;;16.23;52.39
79546;BME280;69004;50.760;6.958;2023-04-30T21:20:23;100871.75;;;16.24;52.35
79546;BME280;69004;50.760;6.958;2023-04-30T21:22:49;100871.75;;;16.24;52.52
79546;BME280;69004;50.760;6.958;2023-04-30T21:25:17;100871.75;;;16.24;52.49
79546;BME280;69004;50.760;6.958;2023-04-30T21:27:43;100863.78;;;16.22;52.55
79546;BME280;69004;50.760;6.958;2023-04-30T21:30:10;100858.25;;;16.22;52.43
79546;BME280;69004;50.760;6.958;2023-04-30T21:32:36;100864.88;;;16.21;52.65
79546;BME280;69004;50.760;6.958;2023-04-30T21:35:03;100863.78;;;16.22;52.60
79546;BME280;69004;50.760;6.958;2023-04-30T21:37:29;100862.91;;;16.22;52.89
79546;BME280;69004;50.760;6.958;2023-04-30T21:39:55;100862.91;;;16.22;52.48
79546;BME280;69004;50.760;6.958;2023-04-30T21:42:22;100860.16;;;16.22;52.44
79546;BME280;69004;50.760;6.958;2023-04-30T21:44:48;100863.78;;;16.22;52.37
79546;BME280;69004;50.760;6.958;2023-04-30T21:47:15;100866.53;;;16.22;52.36
79546;BME280;69004;50.760;6.958;2023-04-30T21:49:42;100860.16;;;16.22;52.38
79546;BME280;69004;50.760;6.958;2023-04-30T21:52:08;100862.91;;;16.22;52.41
79546;BME280;69004;50.760;6.958;2023-04-30T21:54:34;100858.25;;;16.22;52.56
79546;BME280;69004;50.760;6.958;2023-04-30T21:59:54;100853.81;;;16.21;52.59
79546;BME280;69004;50.760;6.958;2023-04-30T22:02:20;100856.59;;;16.21;52.67
79546;BME280;69004;50.760;6.958;2023-04-30T22:04:49;100860.16;;;16.22;52.60
79546;BME280;69004;50.760;6.958;2023-04-30T22:07:16;100856.59;;;16.21;52.62
79546;BME280;69004;50.760;6.958;2023-04-30T22:09:42;100861.00;;;16.22;52.65
79546;BME280;69004;50.760;6.958;2023-04-30T22:12:10;100852.72;;;16.22;52.78
79546;BME280;69004;50.760;6.958;2023-04-30T22:14:36;100854.91;;;16.20;52.64
79546;BME280;69004;50.760;6.958;2023-04-30T22:17:03;100853.81;;;16.21;52.65
79546;BME280;69004;50.760;6.958;2023-04-30T22:19:29;100851.06;;;16.21;52.77
79546;BME280;69004;50.760;6.958;2023-04-30T22:21:56;100851.06;;;16.21;52.58
79546;BME280;69004;50.760;6.958;2023-04-30T22:24:22;100849.41;;;16.20;52.75
79546;BME280;69004;50.760;6.958;2023-04-30T22:26:49;100843.88;;;16.20;52.50
79546;BME280;69004;50.760;6.958;2023-04-30T22:29:15;100845.78;;;16.20;52.66
79546;BME280;69004;50.760;6.958;2023-04-30T22:31:42;100842.22;;;16.19;52.71
79546;BME280;69004;50.760;6.958;2023-04-30T22:34:08;100843.88;;;16.20;52.69
79546;BME280;69004;50.760;6.958;2023-04-30T22:36:35;100847.75;;;16.19;52.77
79546;BME280;69004;50.760;6.958;2023-04-30T22:39:02;100845.78;;;16.20;52.81
79546;BME280;69004;50.760;6.958;2023-04-30T22:41:29;100843.88;;;16.20;52.81
79546;BME280;69004;50.760;6.958;2023-04-30T22:43:55;100839.44;;;16.19;52.76
79546;BME280;69004;50.760;6.958;2023-04-30T22:46:22;100843.88;;;16.20;52.64
79546;BME280;69004;50.760;6.958;2023-04-30T22:48:49;100840.00;;;16.21;52.70
79546;BME280;69004;50.760;6.958;2023-04-30T22:51:15;100840.00;;;16.21;52.84
79546;BME280;69004;50.760;6.958;2023-04-30T22:53:42;100845.53;;;16.21;52.71
79546;BME280;69004;50.760;6.958;2023-04-30T22:56:09;100839.16;;;16.21;52.80
79546;BME280;69004;50.760;6.958;2023-04-30T22:58:35;100840.00;;;16.21;52.71
79546;BME280;69004;50.760;6.958;2023-04-30T23:01:02;100841.13;;;16.20;52.92
79546;BME280;69004;50.760;6.958;2023-04-30T23:03:28;100841.66;;;16.22;52.71
79546;BME280;69004;50.760;6.958;2023-04-30T23:05:57;100835.28;;;16.22;52.79
79546;BME280;69004;50.760;6.958;2023-04-30T23:08:23;100845.53;;;16.21;52.62
79546;BME280;69004;50.760;6.958;2023-04-30T23:10:50;100841.66;;;16.22;52.82
79546;BME280;69004;50.760;6.958;2023-04-30T23:13:18;100841.66;;;16.22;52.78
79546;BME280;69004;50.760;6.958;2023-04-30T23:15:44;100832.53;;;16.22;52.66
79546;BME280;69004;50.760;6.958;2023-04-30T23:18:11;100834.47;;;16.21;52.79
79546;BME280;69004;50.760;6.958;2023-04-30T23:20:38;100837.25;;;16.21;52.86
79546;BME280;69004;50.760;6.958;2023-04-30T23:23:04;100830.63;;;16.22;52.58
79546;BME280;69004;50.760;6.958;2023-04-30T23:25:31;100835.28;;;16.22;52.74
79546;BME280;69004;50.760;6.958;2023-04-30T23:27:57;100828.13;;;16.21;52.71
79546;BME280;69004;50.760;6.958;2023-04-30T23:30:25;100833.63;;;16.21;52.87
79546;BME280;69004;50.760;6.958;2023-04-30T23:32:52;100826.19;;;16.21;52.64
79546;BME280;69004;50.760;6.958;2023-04-30T23:35:18;100823.44;;;16.21;52.77
79546;BME280;69004;50.760;6.958;2023-04-30T23:37:45;100813.50;;;16.20;52.57
79546;BME280;69004;50.760;6.958;2023-04-30T23:40:11;100820.66;;;16.21;52.79
79546;BME280;69004;50.760;6.958;2023-04-30T23:42:38;100817.91;;;16.21;52.76
79546;BME280;69004;50.760;6.958;2023-04-30T23:45:05;100810.72;;;16.20;52.69
79546;BME280;69004;50.760;6.958;2023-04-30T23:47:32;100805.19;;;16.20;52.78
79546;BME280;69004;50.760;6.958;2023-04-30T23:50:02;100806.31;;;16.19;52.87
79546;BME280;69004;50.760;6.958;2023-04-30T23:52:28;100801.88;;;16.18;53.01
79546;BME280;69004;50.760;6.958;2023-04-30T23:54:55;100803.53;;;16.19;52.84
79546;BME280;69004;50.760;6.958;2023-04-30T23:57:22;100800.78;;;16.19;53.00
79546;BME280;69004;50.760;6.958;2023-04-30T23:59:49;100794.44;;;16.19;52.74
